createdAt,value
2023-05-10T00:01:45.246Z,12.41
2023-05-10T00:04:11.556Z,12.42
2023-05-10T00:06:38.624Z,12.44
2023-05-10T00:09:04.932Z,12.44
2023-05-10T00:11:31.244Z,12.38
2023-05-10T00:13:57.585Z,12.41
2023-05-10T00:16:23.921Z,12.46
2023-05-10T00:18:50.359Z,12.39
2023-05-10T00:21:16.649Z,12.34
2023-05-10T00:23:43.585Z,12.36
2023-05-10T00:26:09.897Z,12.33
2023-05-10T00:28:36.199Z,12.37
2023-05-10T00:31:02.602Z,12.34
2023-05-10T00:33:28.885Z,12.34
2023-05-10T00:35:55.204Z,12.36
2023-05-10T00:38:21.531Z,12.38
2023-05-10T00:40:48.616Z,12.36
2023-05-10T00:43:16.926Z,12.36
2023-05-10T00:45:43.801Z,12.38
2023-05-10T00:48:10.167Z,12.32
2023-05-10T00:50:36.745Z,12.31
2023-05-10T00:53:03.697Z,12.31
2023-05-10T00:55:30.997Z,12.32
2023-05-10T00:57:58.196Z,12.28
2023-05-10T01:00:24.537Z,12.30
2023-05-10T01:02:51.085Z,12.31
2023-05-10T01:05:17.768Z,12.29
2023-05-10T01:07:45.418Z,12.29
2023-05-10T01:10:11.899Z,12.25
2023-05-10T01:12:41.130Z,12.26
2023-05-10T01:15:11.177Z,12.27
2023-05-10T01:17:40.040Z,12.25
2023-05-10T01:20:08.587Z,12.23
2023-05-10T01:23:01.707Z,12.22
2023-05-10T01:25:52.306Z,12.15
2023-05-10T01:28:49.501Z,12.14
2023-05-10T01:31:41.328Z,12.17
2023-05-10T01:34:12.399Z,12.14
2023-05-10T01:36:44.280Z,12.20
2023-05-10T01:39:16.582Z,12.08
2023-05-10T01:41:48.780Z,12.12
2023-05-10T01:44:25.226Z,12.12
2023-05-10T01:46:58.340Z,12.09
2023-05-10T01:49:29.746Z,12.03
2023-05-10T01:52:00.949Z,12.04
2023-05-10T01:54:29.567Z,12.04
2023-05-10T01:57:00.529Z,12.02
2023-05-10T01:59:36.448Z,11.97
2023-05-10T02:02:05.005Z,12.03
2023-05-10T02:04:33.737Z,11.93
2023-05-10T02:07:00.412Z,11.97
2023-05-10T02:09:28.806Z,11.95
2023-05-10T02:11:58.047Z,11.99
2023-05-10T02:14:26.632Z,11.97
2023-05-10T02:16:56.032Z,11.97
2023-05-10T02:19:24.163Z,11.97
2023-05-10T02:21:52.444Z,12.00
2023-05-10T02:24:21.476Z,11.99
2023-05-10T02:26:50.553Z,12.00
2023-05-10T02:29:18.418Z,11.98
2023-05-10T02:31:46.063Z,11.96
2023-05-10T02:34:13.358Z,11.99
2023-05-10T02:36:41.670Z,11.98
2023-05-10T02:39:12.861Z,11.95
2023-05-10T02:41:41.127Z,11.97
2023-05-10T02:44:09.820Z,11.96
2023-05-10T02:46:37.276Z,11.99
2023-05-10T02:49:03.870Z,11.98
2023-05-10T02:51:33.849Z,11.96
2023-05-10T02:54:07.622Z,11.95
2023-05-10T02:56:41.293Z,11.96
2023-05-10T02:59:09.038Z,11.92
2023-05-10T03:01:35.432Z,11.92
2023-05-10T03:04:01.753Z,11.96
2023-05-10T03:06:28.902Z,11.90
2023-05-10T03:08:55.341Z,11.94
2023-05-10T03:11:31.956Z,11.97
2023-05-10T03:14:10.763Z,11.96
2023-05-10T03:16:48.089Z,11.99
2023-05-10T03:19:22.544Z,11.98
2023-05-10T03:21:53.075Z,11.98
2023-05-10T03:24:22.376Z,11.97
2023-05-10T03:26:53.838Z,12.00
2023-05-10T03:29:22.469Z,11.98
2023-05-10T03:31:48.963Z,12.01
2023-05-10T03:34:15.326Z,11.97
2023-05-10T03:36:41.635Z,11.97
2023-05-10T03:39:07.940Z,12.01
2023-05-10T03:41:34.212Z,12.00
2023-05-10T03:44:00.529Z,11.98
2023-05-10T03:46:27.590Z,11.93
2023-05-10T03:48:53.893Z,11.97
2023-05-10T03:51:20.657Z,11.95
2023-05-10T03:53:46.943Z,11.99
2023-05-10T03:56:13.253Z,11.96
2023-05-10T03:58:39.531Z,11.97
2023-05-10T04:01:05.811Z,12.01
2023-05-10T04:03:32.829Z,12.02
2023-05-10T04:06:00.766Z,11.99
2023-05-10T04:08:27.202Z,12.04
2023-05-10T04:10:53.649Z,12.03
2023-05-10T04:13:19.980Z,12.07
2023-05-10T04:15:46.279Z,12.06
2023-05-10T04:18:12.581Z,12.05
2023-05-10T04:20:39.546Z,12.06
2023-05-10T04:23:05.818Z,12.05
2023-05-10T04:25:34.652Z,12.02
2023-05-10T04:28:02.984Z,12.06
2023-05-10T04:30:29.552Z,12.06
2023-05-10T04:32:55.939Z,12.07
2023-05-10T04:35:22.249Z,12.04
2023-05-10T04:37:49.205Z,12.03
2023-05-10T04:40:15.789Z,12.06
2023-05-10T04:42:42.305Z,12.08
2023-05-10T04:45:10.375Z,12.06
2023-05-10T04:47:37.303Z,12.01
2023-05-10T04:50:04.098Z,12.00
2023-05-10T04:52:30.449Z,11.99
2023-05-10T04:54:57.444Z,11.96
2023-05-10T04:57:23.842Z,11.94
2023-05-10T04:59:50.569Z,11.89
2023-05-10T05:02:17.075Z,11.81
2023-05-10T05:04:43.456Z,11.83
2023-05-10T05:07:10.870Z,11.83
2023-05-10T05:09:37.175Z,11.81
2023-05-10T05:12:05.010Z,11.76
2023-05-10T05:14:31.320Z,11.77
2023-05-10T05:16:57.873Z,11.75
2023-05-10T05:19:24.300Z,11.67
2023-05-10T05:21:50.722Z,11.58
2023-05-10T05:24:17.018Z,11.67
2023-05-10T05:26:43.390Z,11.67
2023-05-10T05:29:10.325Z,11.60
2023-05-10T05:31:36.744Z,11.59
2023-05-10T05:34:03.055Z,11.63
2023-05-10T05:36:29.414Z,11.59
2023-05-10T05:38:55.673Z,11.48
2023-05-10T05:41:22.132Z,11.46
2023-05-10T05:43:48.455Z,11.36
2023-05-10T05:46:15.508Z,11.33
2023-05-10T05:48:44.849Z,11.16
2023-05-10T05:51:11.683Z,10.99
2023-05-10T05:53:37.972Z,10.86
2023-05-10T05:56:04.917Z,10.87
2023-05-10T05:58:31.304Z,10.99
2023-05-10T06:00:57.867Z,11.03
2023-05-10T06:03:25.012Z,11.14
2023-05-10T06:05:51.369Z,11.20
2023-05-10T06:08:17.698Z,11.18
2023-05-10T06:10:44.653Z,11.23
2023-05-10T06:13:11.094Z,11.32
2023-05-10T06:15:37.467Z,11.36
2023-05-10T06:18:04.071Z,11.38
2023-05-10T06:20:31.959Z,11.45
2023-05-10T06:22:58.397Z,11.53
2023-05-10T06:25:24.889Z,11.56
2023-05-10T06:27:55.680Z,11.64
2023-05-10T06:30:27.469Z,11.79
2023-05-10T06:32:54.227Z,11.83
2023-05-10T06:35:20.726Z,11.89
2023-05-10T06:37:47.700Z,12.07
2023-05-10T06:40:14.678Z,12.16
2023-05-10T06:42:40.970Z,12.28
2023-05-10T06:45:08.818Z,12.34
2023-05-10T06:47:37.208Z,12.60
2023-05-10T06:50:06.189Z,12.67
2023-05-10T06:52:32.477Z,12.77
2023-05-10T06:54:59.552Z,12.85
2023-05-10T06:59:56.814Z,13.17
2023-05-10T07:02:23.415Z,13.09
2023-05-10T07:04:50.284Z,13.08
2023-05-10T07:07:16.646Z,12.95
2023-05-10T07:09:43.031Z,12.96
2023-05-10T07:12:12.135Z,12.95
2023-05-10T07:14:40.200Z,13.11
2023-05-10T07:17:06.562Z,13.26
2023-05-10T07:19:33.189Z,13.24
2023-05-10T07:21:59.549Z,13.39
2023-05-10T07:24:25.961Z,13.57
2023-05-10T07:26:52.313Z,13.62
2023-05-10T07:29:19.357Z,13.49
2023-05-10T07:31:45.681Z,13.47
2023-05-10T07:34:12.046Z,13.53
2023-05-10T07:36:38.422Z,13.64
2023-05-10T07:39:05.187Z,13.42
2023-05-10T07:41:31.533Z,13.55
2023-05-10T07:43:57.866Z,13.96
2023-05-10T07:46:24.988Z,13.98
2023-05-10T07:48:51.305Z,14.14
2023-05-10T07:51:17.599Z,13.85
2023-05-10T07:53:43.908Z,14.04
2023-05-10T07:56:25.522Z,14.22
2023-05-10T07:58:52.143Z,14.27
2023-05-10T08:01:18.712Z,13.97
2023-05-10T08:03:45.758Z,13.99
2023-05-10T08:06:12.396Z,13.96
2023-05-10T08:08:38.815Z,14.02
2023-05-10T08:11:05.168Z,14.23
2023-05-10T08:13:31.954Z,14.01
2023-05-10T08:15:58.296Z,14.01
2023-05-10T08:18:25.079Z,14.15
2023-05-10T08:20:52.102Z,14.11
2023-05-10T08:23:18.396Z,14.16
2023-05-10T08:25:44.774Z,14.51
2023-05-10T08:28:11.967Z,14.26
2023-05-10T08:30:38.362Z,13.84
2023-05-10T08:33:04.750Z,13.76
2023-05-10T08:35:31.698Z,13.80
2023-05-10T08:37:58.604Z,13.59
2023-05-10T08:40:26.731Z,13.17
2023-05-10T08:42:59.231Z,12.91
2023-05-10T08:45:27.868Z,12.95
2023-05-10T08:47:54.850Z,12.85
2023-05-10T08:50:22.438Z,12.87
2023-05-10T08:52:51.539Z,12.97
2023-05-10T08:55:19.396Z,12.98
2023-05-10T08:57:46.160Z,12.85
2023-05-10T09:00:14.219Z,12.88
2023-05-10T09:02:42.477Z,12.79
2023-05-10T09:05:10.747Z,12.78
2023-05-10T09:07:37.409Z,12.78
2023-05-10T09:10:05.605Z,13.16
2023-05-10T09:12:32.602Z,13.51
2023-05-10T09:15:01.117Z,13.78
2023-05-10T09:17:29.626Z,13.92
2023-05-10T09:19:58.836Z,13.65
2023-05-10T09:22:25.462Z,13.65
2023-05-10T09:25:04.489Z,13.51
2023-05-10T09:27:30.917Z,13.40
2023-05-10T09:29:57.963Z,13.51
2023-05-10T09:32:36.924Z,13.58
2023-05-10T09:35:10.465Z,13.59
2023-05-10T09:37:36.821Z,13.58
2023-05-10T09:40:07.698Z,14.03
2023-05-10T09:42:34.621Z,14.41
2023-05-10T09:45:03.975Z,14.84
2023-05-10T09:47:32.138Z,15.42
2023-05-10T09:50:03.320Z,15.82
2023-05-10T09:52:30.455Z,15.81
2023-05-10T09:54:56.950Z,15.58
2023-05-10T09:57:24.987Z,15.41
2023-05-10T09:59:52.021Z,15.42
2023-05-10T10:02:19.186Z,15.22
2023-05-10T10:04:45.565Z,15.23
2023-05-10T10:07:12.045Z,15.60
2023-05-10T10:09:39.578Z,15.72
2023-05-10T10:12:06.534Z,15.78
2023-05-10T10:14:33.324Z,15.64
2023-05-10T10:17:08.082Z,15.92
2023-05-10T10:19:35.904Z,16.01
2023-05-10T10:22:02.417Z,15.87
2023-05-10T10:24:28.868Z,15.98
2023-05-10T10:27:02.549Z,16.25
2023-05-10T10:29:38.549Z,16.63
2023-05-10T10:32:13.201Z,17.12
2023-05-10T10:34:40.808Z,17.74
2023-05-10T10:37:07.218Z,18.16
2023-05-10T10:39:36.690Z,18.75
2023-05-10T10:42:03.728Z,18.68
2023-05-10T10:44:40.594Z,19.04
2023-05-10T10:47:24.762Z,19.01
2023-05-10T10:50:02.522Z,18.75
2023-05-10T10:52:33.426Z,18.39
2023-05-10T10:55:02.999Z,18.15
2023-05-10T10:57:32.929Z,17.58
2023-05-10T11:00:25.377Z,17.09
2023-05-10T11:02:53.606Z,16.56
2023-05-10T11:05:36.050Z,15.97
2023-05-10T11:08:09.279Z,15.62
2023-05-10T11:10:35.714Z,14.66
2023-05-10T11:13:04.438Z,13.98
2023-05-10T11:15:31.417Z,13.58
2023-05-10T11:17:57.926Z,13.37
2023-05-10T11:20:33.284Z,13.22
2023-05-10T11:23:13.263Z,13.06
2023-05-10T11:25:43.663Z,12.93
2023-05-10T11:28:10.107Z,12.89
2023-05-10T11:30:36.971Z,12.94
2023-05-10T11:33:03.473Z,12.58
2023-05-10T11:35:29.893Z,12.40
2023-05-10T11:37:56.243Z,12.29
2023-05-10T11:40:24.821Z,12.10
2023-05-10T11:42:51.272Z,11.96
2023-05-10T11:45:24.571Z,11.94
2023-05-10T11:47:51.062Z,11.91
2023-05-10T11:50:18.730Z,11.85
2023-05-10T11:52:45.340Z,11.81
2023-05-10T11:55:12.984Z,11.77
2023-05-10T11:57:42.037Z,11.76
2023-05-10T12:00:09.216Z,11.75
2023-05-10T12:02:35.862Z,11.76
2023-05-10T12:05:04.741Z,11.56
2023-05-10T12:07:32.259Z,11.51
2023-05-10T12:10:08.476Z,11.57
2023-05-10T12:12:38.806Z,11.48
2023-05-10T12:15:11.040Z,11.44
2023-05-10T12:17:38.294Z,11.49
2023-05-10T12:20:15.860Z,11.67
2023-05-10T12:22:45.209Z,11.72
2023-05-10T12:25:11.541Z,11.89
2023-05-10T12:27:37.940Z,11.97
2023-05-10T12:30:05.419Z,12.04
2023-05-10T12:32:42.278Z,12.14
2023-05-10T12:35:09.106Z,12.14
2023-05-10T12:37:39.176Z,12.13
2023-05-10T12:40:11.048Z,12.06
2023-05-10T12:42:38.769Z,12.05
2023-05-10T12:45:05.973Z,12.06
2023-05-10T12:47:32.943Z,12.08
2023-05-10T12:50:01.478Z,12.13
2023-05-10T12:52:28.249Z,12.22
2023-05-10T12:54:54.672Z,12.14
2023-05-10T12:57:21.712Z,12.13
2023-05-10T12:59:48.118Z,12.03
2023-05-10T13:02:14.901Z,12.05
2023-05-10T13:04:42.096Z,12.11
2023-05-10T13:07:09.488Z,12.20
2023-05-10T13:09:35.891Z,12.15
2023-05-10T13:12:02.851Z,12.21
2023-05-10T13:14:30.124Z,12.28
2023-05-10T13:16:56.612Z,12.24
2023-05-10T13:19:22.959Z,12.33
2023-05-10T13:21:49.289Z,12.23
2023-05-10T13:24:17.193Z,12.22
2023-05-10T13:26:43.923Z,12.22
2023-05-10T13:29:10.408Z,12.10
2023-05-10T13:31:36.835Z,11.98
2023-05-10T13:34:03.358Z,11.95
2023-05-10T13:36:29.701Z,12.00
2023-05-10T13:38:56.234Z,11.96
2023-05-10T13:41:23.201Z,12.01
2023-05-10T13:43:49.628Z,11.96
2023-05-10T13:46:15.968Z,11.79
2023-05-10T13:48:42.300Z,11.70
2023-05-10T13:51:08.614Z,11.76
2023-05-10T13:53:34.928Z,11.76
2023-05-10T13:56:02.489Z,11.83
2023-05-10T13:58:29.434Z,11.82
2023-05-10T14:00:56.399Z,11.82
2023-05-10T14:03:22.776Z,11.82
2023-05-10T14:05:49.232Z,11.81
2023-05-10T14:08:15.575Z,11.83
2023-05-10T14:10:42.028Z,11.90
2023-05-10T14:13:08.349Z,11.85
2023-05-10T14:15:35.333Z,11.84
2023-05-10T14:18:01.978Z,11.81
2023-05-10T14:20:28.561Z,11.97
2023-05-10T14:22:54.863Z,12.02
2023-05-10T14:25:21.234Z,12.10
2023-05-10T14:27:48.054Z,12.08
2023-05-10T14:30:15.194Z,12.13
2023-05-10T14:32:42.183Z,12.18
2023-05-10T14:35:12.217Z,12.17
2023-05-10T14:37:39.482Z,12.26
2023-05-10T14:40:07.539Z,12.23
2023-05-10T14:42:33.897Z,12.11
2023-05-10T14:45:00.283Z,12.13
2023-05-10T14:47:26.643Z,12.11
2023-05-10T14:49:53.679Z,12.00
2023-05-10T14:52:20.014Z,11.91
2023-05-10T14:54:46.501Z,11.97
2023-05-10T14:57:13.031Z,11.93
2023-05-10T14:59:39.411Z,11.80
2023-05-10T15:02:08.448Z,11.72
2023-05-10T15:04:35.227Z,11.52
2023-05-10T15:07:03.566Z,11.45
2023-05-10T15:09:30.110Z,11.51
2023-05-10T15:11:56.539Z,11.49
2023-05-10T15:14:23.107Z,11.46
2023-05-10T15:16:49.477Z,11.48
2023-05-10T15:19:15.874Z,11.47
2023-05-10T15:21:44.692Z,11.35
2023-05-10T15:24:11.800Z,11.39
2023-05-10T15:26:38.196Z,11.46
2023-05-10T15:29:04.543Z,11.43
2023-05-10T15:31:30.976Z,11.35
2023-05-10T15:33:58.979Z,11.32
2023-05-10T15:36:25.506Z,11.22
2023-05-10T15:38:51.773Z,11.24
2023-05-10T15:41:18.776Z,11.08
2023-05-10T15:43:45.161Z,11.16
2023-05-10T15:46:11.562Z,11.26
2023-05-10T15:48:39.442Z,11.28
2023-05-10T15:51:05.894Z,11.33
2023-05-10T15:53:32.216Z,11.31
2023-05-10T15:55:58.738Z,11.25
2023-05-10T15:58:25.704Z,11.25
2023-05-10T16:00:52.246Z,11.17
2023-05-10T16:03:18.630Z,11.17
2023-05-10T16:05:45.037Z,11.14
2023-05-10T16:08:11.348Z,11.08
2023-05-10T16:10:37.712Z,11.03
2023-05-10T16:13:04.197Z,10.98
2023-05-10T16:15:31.270Z,11.04
2023-05-10T16:17:57.772Z,11.05
2023-05-10T16:20:24.306Z,11.06
2023-05-10T16:22:50.695Z,11.07
2023-05-10T16:25:17.383Z,11.08
2023-05-10T16:27:44.078Z,11.12
2023-05-10T16:30:10.826Z,10.99
2023-05-10T16:32:40.670Z,11.00
2023-05-10T16:35:08.238Z,10.99
2023-05-10T16:37:35.125Z,10.96
2023-05-10T16:40:01.657Z,10.93
2023-05-10T16:42:29.438Z,10.92
2023-05-10T16:44:55.782Z,10.84
2023-05-10T16:47:22.550Z,10.85
2023-05-10T16:49:49.527Z,10.80
2023-05-10T16:52:15.852Z,10.87
2023-05-10T16:54:42.144Z,10.84
2023-05-10T16:57:08.569Z,10.78
2023-05-10T16:59:34.882Z,10.70
2023-05-10T17:02:01.206Z,10.72
2023-05-10T17:04:28.096Z,10.67
2023-05-10T17:06:55.104Z,10.70
2023-05-10T17:09:21.400Z,10.59
2023-05-10T17:11:47.758Z,10.61
2023-05-10T17:14:14.091Z,10.58
2023-05-10T17:16:41.355Z,10.49
2023-05-10T17:19:08.144Z,10.38
2023-05-10T17:21:34.642Z,10.27
2023-05-10T17:24:01.663Z,10.16
2023-05-10T17:26:29.208Z,10.15
2023-05-10T17:28:55.549Z,10.19
2023-05-10T17:31:21.904Z,10.17
2023-05-10T17:33:48.298Z,10.07
2023-05-10T17:36:14.628Z,10.06
2023-05-10T17:38:42.040Z,10.12
2023-05-10T17:41:08.992Z,10.01
2023-05-10T17:43:35.329Z,9.98
2023-05-10T17:46:01.698Z,9.88
2023-05-10T17:48:28.072Z,9.82
2023-05-10T17:50:54.419Z,9.84
2023-05-10T17:53:20.773Z,9.78
2023-05-10T17:55:47.160Z,9.75
2023-05-10T17:58:14.130Z,9.69
2023-05-10T18:00:40.589Z,9.73
2023-05-10T18:03:15.138Z,9.71
2023-05-10T18:05:41.545Z,9.67
2023-05-10T18:08:07.908Z,9.65
2023-05-10T18:10:34.356Z,9.71
2023-05-10T18:13:03.106Z,9.67
2023-05-10T18:15:30.480Z,9.68
2023-05-10T18:17:56.962Z,9.66
2023-05-10T18:20:23.452Z,9.65
2023-05-10T18:22:49.935Z,9.62
2023-05-10T18:25:16.561Z,9.58
2023-05-10T18:27:43.316Z,9.51
2023-05-10T18:30:11.589Z,9.46
2023-05-10T18:32:38.884Z,9.42
2023-05-10T18:35:06.119Z,9.44
2023-05-10T18:37:32.674Z,9.41
2023-05-10T18:39:59.151Z,9.40
2023-05-10T18:42:27.000Z,9.36
2023-05-10T18:44:54.593Z,9.34
2023-05-10T18:47:21.218Z,9.38
2023-05-10T18:49:48.306Z,9.33
2023-05-10T18:52:15.614Z,9.36
2023-05-10T18:54:41.923Z,9.32
2023-05-10T18:57:08.956Z,9.28
2023-05-10T18:59:35.267Z,9.26
2023-05-10T19:02:02.062Z,9.34
2023-05-10T19:04:28.464Z,9.30
2023-05-10T19:06:55.415Z,9.27
2023-05-10T19:09:21.839Z,9.21
2023-05-10T19:11:48.212Z,9.23
2023-05-10T19:14:14.873Z,9.15
2023-05-10T19:16:41.163Z,9.18
2023-05-10T19:19:08.742Z,9.18
2023-05-10T19:21:35.365Z,9.23
2023-05-10T19:24:02.491Z,9.21
2023-05-10T19:26:28.839Z,9.27
2023-05-10T19:28:56.697Z,9.27
2023-05-10T19:31:23.619Z,9.27
2023-05-10T19:33:50.126Z,9.22
2023-05-10T19:36:16.459Z,9.25
2023-05-10T19:38:42.796Z,9.29
2023-05-10T19:41:10.727Z,9.29
2023-05-10T19:43:37.726Z,9.30
2023-05-10T19:46:04.170Z,9.26
2023-05-10T19:48:30.851Z,9.27
2023-05-10T19:50:59.837Z,9.27
2023-05-10T19:53:26.994Z,9.30
2023-05-10T19:55:53.968Z,9.27
2023-05-10T19:58:20.920Z,9.26
2023-05-10T20:00:47.205Z,9.25
2023-05-10T20:03:13.576Z,9.20
2023-05-10T20:05:39.953Z,9.21
2023-05-10T20:08:06.350Z,9.21
2023-05-10T20:10:32.739Z,9.20
2023-05-10T20:12:59.658Z,9.18
2023-05-10T20:15:28.449Z,9.10
2023-05-10T20:17:54.869Z,9.12
2023-05-10T20:20:21.745Z,9.10
2023-05-10T20:22:48.665Z,9.05
2023-05-10T20:25:17.492Z,9.08
2023-05-10T20:27:43.812Z,9.07
2023-05-10T20:30:10.790Z,9.07
2023-05-10T20:32:38.069Z,9.03
2023-05-10T20:35:05.465Z,9.01
2023-05-10T20:37:31.839Z,8.96
2023-05-10T20:39:58.160Z,8.96
2023-05-10T20:42:24.508Z,8.99
2023-05-10T20:44:50.972Z,8.95
2023-05-10T20:47:17.637Z,8.95
2023-05-10T20:49:44.661Z,8.94
2023-05-10T20:52:11.000Z,8.92
2023-05-10T20:54:37.321Z,8.95
2023-05-10T20:57:03.639Z,8.93
2023-05-10T20:59:30.023Z,8.91
2023-05-10T21:01:56.517Z,8.87
2023-05-10T21:04:23.756Z,8.90
2023-05-10T21:06:50.942Z,8.89
2023-05-10T21:09:17.299Z,8.84
2023-05-10T21:11:43.936Z,8.93
2023-05-10T21:14:10.258Z,8.91
2023-05-10T21:16:36.712Z,8.83
2023-05-10T21:19:03.144Z,8.76
2023-05-10T21:21:29.529Z,8.77
2023-05-10T21:23:56.520Z,8.75
2023-05-10T21:26:22.914Z,8.77
2023-05-10T21:28:49.190Z,8.75
2023-05-10T21:31:16.209Z,8.80
2023-05-10T21:33:42.700Z,8.76
2023-05-10T21:36:09.499Z,8.65
2023-05-10T21:38:35.866Z,8.67
2023-05-10T21:41:06.291Z,8.58
2023-05-10T21:43:32.736Z,8.63
2023-05-10T21:45:59.073Z,8.57
2023-05-10T21:48:25.419Z,8.54
2023-05-10T21:50:51.852Z,8.47
2023-05-10T21:53:18.178Z,8.49
2023-05-10T21:55:44.504Z,8.51
2023-05-10T21:58:11.450Z,8.50
2023-05-10T22:00:37.719Z,8.46
2023-05-10T22:03:04.140Z,8.41
2023-05-10T22:05:30.533Z,8.40
2023-05-10T22:07:56.902Z,8.43
2023-05-10T22:10:23.202Z,8.36
2023-05-10T22:12:49.554Z,8.32
2023-05-10T22:15:16.894Z,8.30
2023-05-10T22:17:43.313Z,8.27
2023-05-10T22:20:10.023Z,8.27
2023-05-10T22:22:36.759Z,8.23
2023-05-10T22:25:03.597Z,8.20
2023-05-10T22:27:29.952Z,8.19
2023-05-10T22:29:56.302Z,8.18
2023-05-10T22:32:23.456Z,8.17
2023-05-10T22:34:49.822Z,8.17
2023-05-10T22:37:17.219Z,8.21
2023-05-10T22:39:43.572Z,8.19
2023-05-10T22:42:09.966Z,8.13
2023-05-10T22:44:36.710Z,8.13
2023-05-10T22:47:03.177Z,8.09
2023-05-10T22:49:30.950Z,8.10
2023-05-10T22:58:13.157Z,7.91
2023-05-10T23:00:39.521Z,7.93
2023-05-10T23:03:06.240Z,7.93
2023-05-10T23:05:32.638Z,7.90
2023-05-10T23:07:58.946Z,7.89
2023-05-10T23:10:25.261Z,7.85
2023-05-10T23:12:51.550Z,7.85
2023-05-10T23:15:18.534Z,7.88
2023-05-10T23:17:44.854Z,7.89
2023-05-10T23:20:12.589Z,7.87
2023-05-10T23:22:39.359Z,7.88
2023-05-10T23:25:06.713Z,7.88
2023-05-10T23:27:33.121Z,7.87
2023-05-10T23:29:59.633Z,7.86
2023-05-10T23:32:26.566Z,7.85
2023-05-10T23:34:53.077Z,7.91
2023-05-10T23:37:19.341Z,7.90
2023-05-10T23:39:45.876Z,7.90
2023-05-10T23:42:12.227Z,7.86
2023-05-10T23:44:38.520Z,7.86
2023-05-10T23:47:05.322Z,7.88
2023-05-10T23:49:32.280Z,7.86
2023-05-10T23:51:58.593Z,7.88
2023-05-10T23:54:24.899Z,7.85
2023-05-10T23:56:51.357Z,7.86
2023-05-10T23:59:17.687Z,7.84
